createdAt,value
2018-08-06T00:01:04.737Z,1.27
2018-08-06T00:03:33.820Z,1.47
2018-08-06T00:06:02.888Z,1.70
2018-08-06T00:08:31.976Z,1.30
2018-08-06T00:11:01.043Z,1.40
2018-08-06T00:13:30.153Z,1.53
2018-08-06T00:15:59.217Z,1.53
2018-08-06T00:18:28.299Z,1.33
2018-08-06T00:20:57.367Z,1.30
2018-08-06T00:23:26.456Z,1.43
2018-08-06T00:25:55.520Z,1.40
2018-08-06T00:28:24.613Z,1.50
2018-08-06T00:30:53.683Z,1.10
2018-08-06T00:33:22.764Z,1.80
2018-08-06T00:35:51.834Z,1.30
2018-08-06T00:38:20.924Z,1.63
2018-08-06T00:40:49.988Z,1.50
2018-08-06T00:43:19.108Z,1.40
2018-08-06T00:45:48.176Z,1.47
2018-08-06T00:48:17.284Z,1.50
2018-08-06T00:50:46.351Z,1.50
2018-08-06T00:53:15.452Z,1.20
2018-08-06T00:55:44.517Z,1.47
2018-08-06T00:58:13.604Z,1.23
2018-08-06T01:00:42.687Z,1.43
2018-08-06T01:03:11.783Z,1.43
2018-08-06T01:05:40.844Z,1.60
2018-08-06T01:08:09.941Z,1.80
2018-08-06T01:10:39.075Z,1.30
2018-08-06T01:13:08.205Z,1.50
2018-08-06T01:15:37.268Z,1.50
2018-08-06T01:18:06.379Z,1.30
2018-08-06T01:20:35.475Z,1.37
2018-08-06T01:23:04.572Z,2.20
2018-08-06T01:25:33.651Z,1.43
2018-08-06T01:28:02.772Z,1.40
2018-08-06T01:30:31.854Z,1.40
2018-08-06T01:33:00.923Z,1.50
2018-08-06T01:35:30.023Z,1.30
2018-08-06T01:37:59.092Z,1.67
2018-08-06T01:40:28.188Z,1.63
2018-08-06T01:42:57.264Z,1.40
2018-08-06T01:45:26.372Z,1.93
2018-08-06T01:47:55.440Z,1.40
2018-08-06T01:50:24.528Z,1.70
2018-08-06T01:52:53.596Z,1.70
2018-08-06T01:55:22.688Z,1.90
2018-08-06T01:57:51.752Z,1.40
2018-08-06T02:00:20.840Z,1.80
2018-08-06T02:02:49.904Z,1.90
2018-08-06T02:05:19.004Z,1.67
2018-08-06T02:07:48.072Z,2.13
2018-08-06T02:10:17.161Z,2.00
2018-08-06T02:12:46.244Z,2.07
2018-08-06T02:15:15.348Z,1.90
2018-08-06T02:17:44.415Z,1.60
2018-08-06T02:20:15.049Z,2.07
2018-08-06T02:22:44.743Z,1.70
2018-08-06T02:25:13.849Z,1.90
2018-08-06T02:27:43.442Z,1.43
2018-08-06T02:30:14.092Z,1.77
2018-08-06T02:32:43.160Z,1.30
2018-08-06T02:35:13.921Z,1.60
2018-08-06T02:37:43.401Z,1.80
2018-08-06T02:40:14.409Z,1.80
2018-08-06T02:42:43.561Z,2.23
2018-08-06T02:45:12.669Z,2.37
2018-08-06T02:47:41.723Z,1.77
2018-08-06T02:50:11.656Z,2.20
2018-08-06T02:52:41.747Z,1.87
2018-08-06T02:55:13.164Z,2.27
2018-08-06T02:57:42.223Z,1.73
2018-08-06T03:00:13.592Z,1.93
2018-08-06T03:02:43.959Z,2.00
2018-08-06T03:05:14.392Z,2.20
2018-08-06T03:07:44.509Z,2.13
2018-08-06T03:10:13.716Z,2.30
2018-08-06T03:12:43.828Z,2.80
2018-08-06T03:15:13.248Z,1.80
2018-08-06T03:17:42.528Z,1.90
2018-08-06T03:20:12.586Z,2.00
2018-08-06T03:22:41.736Z,1.63
2018-08-06T03:25:13.003Z,2.23
2018-08-06T03:27:42.792Z,1.80
2018-08-06T03:30:13.856Z,1.70
2018-08-06T03:32:43.648Z,2.37
2018-08-06T03:35:12.843Z,2.00
2018-08-06T03:37:41.961Z,1.60
2018-08-06T03:40:11.367Z,2.10
2018-08-06T03:42:40.511Z,1.50
2018-08-06T03:45:11.387Z,2.30
2018-08-06T03:47:41.484Z,2.45
2018-08-06T03:50:11.932Z,1.80
2018-08-06T03:52:41.024Z,2.20
2018-08-06T03:55:11.147Z,2.13
2018-08-06T03:57:40.714Z,2.27
2018-08-06T04:00:12.484Z,1.95
2018-08-06T04:02:42.912Z,2.02
2018-08-06T04:05:13.047Z,2.30
2018-08-06T04:07:42.112Z,2.27
2018-08-06T04:10:13.088Z,1.73
2018-08-06T04:12:42.255Z,2.03
2018-08-06T04:15:11.879Z,1.90
2018-08-06T04:17:41.776Z,2.00
2018-08-06T04:20:11.821Z,1.50
2018-08-06T04:22:41.509Z,1.92
2018-08-06T04:25:10.612Z,2.10
2018-08-06T04:27:39.684Z,1.60
2018-08-06T04:30:11.164Z,1.90
2018-08-06T04:32:40.238Z,1.97
2018-08-06T04:35:09.312Z,1.97
2018-08-06T04:37:38.372Z,2.25
2018-08-06T04:40:08.883Z,2.30
2018-08-06T04:42:37.953Z,2.37
2018-08-06T04:45:07.581Z,1.95
2018-08-06T04:47:36.756Z,1.80
2018-08-06T04:50:06.095Z,2.05
2018-08-06T04:52:35.188Z,2.37
2018-08-06T04:55:04.701Z,2.33
2018-08-06T04:57:33.799Z,2.30
2018-08-06T05:00:03.183Z,2.30
2018-08-06T05:02:32.277Z,2.87
2018-08-06T05:05:01.343Z,2.97
2018-08-06T05:07:30.444Z,2.37
2018-08-06T05:09:59.511Z,2.30
2018-08-06T05:12:28.587Z,2.15
2018-08-06T05:14:57.664Z,2.27
2018-08-06T05:17:26.776Z,2.45
2018-08-06T05:19:55.848Z,2.10
2018-08-06T05:22:24.944Z,2.60
2018-08-06T05:24:54.035Z,2.40
2018-08-06T05:27:23.116Z,2.53
2018-08-06T05:29:52.374Z,2.43
2018-08-06T05:32:21.479Z,2.10
2018-08-06T05:34:50.531Z,2.10
2018-08-06T05:37:19.771Z,2.50
2018-08-06T05:39:49.148Z,2.50
2018-08-06T05:42:18.251Z,2.33
2018-08-06T05:44:47.356Z,2.30
2018-08-06T05:47:16.493Z,2.20
2018-08-06T05:49:45.882Z,2.60
2018-08-06T05:52:14.996Z,2.30
2018-08-06T05:54:44.072Z,1.90
2018-08-06T05:57:13.164Z,2.10
2018-08-06T05:59:42.249Z,2.43
2018-08-06T06:02:11.348Z,2.10
2018-08-06T06:04:40.419Z,2.63
2018-08-06T06:07:09.604Z,2.27
2018-08-06T06:09:38.714Z,2.08
2018-08-06T06:12:07.840Z,2.33
2018-08-06T06:14:37.951Z,1.80
2018-08-06T06:17:07.056Z,1.80
2018-08-06T06:19:36.215Z,1.25
2018-08-06T06:22:05.312Z,1.80
2018-08-06T06:24:34.385Z,1.77
2018-08-06T06:27:03.472Z,1.70
2018-08-06T06:29:32.591Z,1.50
2018-08-06T06:32:01.685Z,1.37
2018-08-06T06:34:30.869Z,1.70
2018-08-06T06:36:59.944Z,1.57
2018-08-06T06:39:29.020Z,1.20
2018-08-06T06:41:58.136Z,1.40
2018-08-06T06:44:27.219Z,1.13
2018-08-06T06:46:56.316Z,1.25
2018-08-06T06:49:25.400Z,1.70
2018-08-06T06:51:54.511Z,1.50
2018-08-06T06:54:23.597Z,1.33
2018-08-06T06:56:52.668Z,1.32
2018-08-06T06:59:21.742Z,1.30
2018-08-06T07:01:50.837Z,1.30
2018-08-06T07:04:19.912Z,1.10
2018-08-06T07:06:49.008Z,1.47
2018-08-06T07:09:18.072Z,1.43
2018-08-06T07:11:47.172Z,0.90
2018-08-06T07:14:16.244Z,1.40
2018-08-06T07:16:45.311Z,1.20
2018-08-06T07:19:14.399Z,1.05
2018-08-06T07:21:43.478Z,1.12
2018-08-06T07:24:12.652Z,1.87
2018-08-06T07:26:41.715Z,1.33
2018-08-06T07:29:10.816Z,1.23
2018-08-06T07:31:39.916Z,1.17
2018-08-06T07:34:09.009Z,1.20
2018-08-06T07:36:38.073Z,1.67
2018-08-06T07:39:09.577Z,1.37
2018-08-06T07:41:38.679Z,1.10
2018-08-06T07:44:08.168Z,1.20
2018-08-06T07:46:37.760Z,1.10
2018-08-06T07:49:07.036Z,1.30
2018-08-06T07:51:36.128Z,1.37
2018-08-06T07:54:05.244Z,1.10
2018-08-06T07:56:34.312Z,2.03
2018-08-06T07:59:03.440Z,1.60
2018-08-06T08:01:32.548Z,1.02
2018-08-06T08:04:01.647Z,2.03
2018-08-06T08:06:31.070Z,1.50
2018-08-06T08:09:00.035Z,1.05
2018-08-06T08:11:29.188Z,1.47
2018-08-06T08:13:58.285Z,1.10
2018-08-06T08:16:27.800Z,1.50
2018-08-06T08:18:57.512Z,2.00
2018-08-06T08:21:26.580Z,0.87
2018-08-06T08:23:55.704Z,1.40
2018-08-06T08:26:24.789Z,1.03
2018-08-06T08:28:53.879Z,1.30
2018-08-06T08:31:23.084Z,1.35
2018-08-06T08:33:52.203Z,1.33
2018-08-06T08:36:21.284Z,1.20
2018-08-06T08:38:50.376Z,1.43
2018-08-06T08:41:19.467Z,1.20
2018-08-06T08:43:48.660Z,1.03
2018-08-06T08:46:17.727Z,1.27
2018-08-06T08:48:46.883Z,1.00
2018-08-06T08:51:15.975Z,1.40
2018-08-06T08:53:45.096Z,1.25
2018-08-06T08:56:14.163Z,1.20
2018-08-06T08:58:43.294Z,1.10
2018-08-06T09:01:12.375Z,1.22
2018-08-06T09:03:41.468Z,1.00
2018-08-06T09:06:10.555Z,1.37
2018-08-06T09:08:39.683Z,1.30
2018-08-06T09:11:08.748Z,1.37
2018-08-06T09:13:37.844Z,1.20
2018-08-06T09:16:06.920Z,1.67
2018-08-06T09:18:36.112Z,1.17
2018-08-06T09:21:05.210Z,1.30
2018-08-06T09:23:34.304Z,1.27
2018-08-06T09:26:03.376Z,1.13
2018-08-06T09:28:32.471Z,1.23
2018-08-06T09:31:02.048Z,1.10
2018-08-06T09:33:31.148Z,1.13
2018-08-06T09:36:00.241Z,0.93
2018-08-06T09:38:29.347Z,1.33
2018-08-06T09:40:58.435Z,1.27
2018-08-06T09:43:27.702Z,1.42
2018-08-06T09:45:56.825Z,1.20
2018-08-06T09:48:25.895Z,1.50
2018-08-06T09:50:54.991Z,1.13
2018-08-06T09:53:24.079Z,1.33
2018-08-06T09:55:53.176Z,1.73
2018-08-06T09:58:22.243Z,1.27
2018-08-06T10:00:56.543Z,1.10
2018-08-06T10:03:25.623Z,1.27
2018-08-06T10:05:54.966Z,1.50
2018-08-06T10:08:23.792Z,1.40
2018-08-06T10:10:52.875Z,1.15
2018-08-06T10:13:21.943Z,1.40
2018-08-06T10:15:51.043Z,1.97
2018-08-06T10:18:20.108Z,1.30
2018-08-06T10:20:49.205Z,1.40
2018-08-06T10:23:18.268Z,1.20
2018-08-06T10:25:47.372Z,1.27
2018-08-06T10:28:16.443Z,1.00
2018-08-06T10:30:45.527Z,1.50
2018-08-06T10:33:14.600Z,1.37
2018-08-06T10:35:43.689Z,1.60
2018-08-06T10:38:12.765Z,1.20
2018-08-06T10:40:41.860Z,1.30
2018-08-06T10:43:10.932Z,1.40
2018-08-06T10:45:40.132Z,1.30
2018-08-06T10:48:09.877Z,1.50
2018-08-06T10:50:38.940Z,1.20
2018-08-06T10:53:08.024Z,1.10
2018-08-06T10:55:37.116Z,1.07
2018-08-06T10:58:06.176Z,1.30
2018-08-06T11:00:35.304Z,1.52
2018-08-06T11:03:04.419Z,2.10
2018-08-06T11:05:33.508Z,1.00
2018-08-06T11:08:02.587Z,1.20
2018-08-06T11:10:31.675Z,1.13
2018-08-06T11:13:01.014Z,1.15
2018-08-06T11:15:30.100Z,1.50
2018-08-06T11:17:59.183Z,1.00
2018-08-06T11:20:28.346Z,1.30
2018-08-06T11:22:57.412Z,1.12
2018-08-06T11:25:27.467Z,1.13
2018-08-06T11:27:56.574Z,1.05
2018-08-06T11:30:25.747Z,1.17
2018-08-06T11:32:55.140Z,1.20
2018-08-06T11:35:24.224Z,1.20
2018-08-06T11:37:53.304Z,0.90
2018-08-06T11:40:22.399Z,1.13
2018-08-06T11:42:51.482Z,1.23
2018-08-06T11:45:21.760Z,1.17
2018-08-06T11:47:50.860Z,1.20
2018-08-06T11:50:19.952Z,1.50
2018-08-06T11:52:49.020Z,1.47
2018-08-06T11:55:18.108Z,1.27
2018-08-06T11:57:47.176Z,1.20
2018-08-06T12:00:20.622Z,1.10
2018-08-06T12:02:49.704Z,1.35
2018-08-06T12:05:18.800Z,1.03
2018-08-06T12:07:47.863Z,1.00
2018-08-06T12:10:18.235Z,1.23
2018-08-06T12:12:48.165Z,1.13
2018-08-06T12:15:17.431Z,1.13
2018-08-06T12:17:46.461Z,1.20
2018-08-06T12:20:17.607Z,0.97
2018-08-06T12:22:47.905Z,1.20
2018-08-06T12:25:17.600Z,1.10
2018-08-06T12:27:47.336Z,0.85
2018-08-06T12:30:18.466Z,1.10
2018-08-06T12:32:48.241Z,1.20
2018-08-06T12:35:17.767Z,1.10
2018-08-06T12:37:48.263Z,0.90
2018-08-06T12:40:18.515Z,1.10
2018-08-06T12:42:47.619Z,1.30
2018-08-06T12:45:17.294Z,0.90
2018-08-06T12:47:46.819Z,1.60
2018-08-06T12:50:16.719Z,1.52
2018-08-06T12:52:46.031Z,1.00
2018-08-06T12:55:16.436Z,1.40
2018-08-06T12:57:45.967Z,1.30
2018-08-06T13:00:21.476Z,1.02
2018-08-06T13:02:51.219Z,1.40
2018-08-06T13:05:20.896Z,1.23
2018-08-06T13:07:49.987Z,0.90
2018-08-06T13:10:19.057Z,1.30
2018-08-06T13:12:48.671Z,1.20
2018-08-06T13:15:18.096Z,1.07
2018-08-06T13:17:47.220Z,1.10
2018-08-06T13:20:16.288Z,1.00
2018-08-06T13:22:45.379Z,1.20
2018-08-06T13:25:14.452Z,1.27
2018-08-06T13:27:43.543Z,1.37
2018-08-06T13:30:14.507Z,1.13
2018-08-06T13:32:44.233Z,1.12
2018-08-06T13:35:14.537Z,1.30
2018-08-06T13:37:43.628Z,1.35
2018-08-06T13:40:13.485Z,1.00
2018-08-06T13:42:42.583Z,1.13
2018-08-06T13:45:13.431Z,1.30
2018-08-06T13:47:42.672Z,1.00
2018-08-06T13:50:12.247Z,1.20
2018-08-06T13:52:42.405Z,1.20
2018-08-06T13:55:13.139Z,1.10
2018-08-06T13:57:42.551Z,1.22
2018-08-06T14:00:14.963Z,1.37
2018-08-06T14:02:44.220Z,1.20
2018-08-06T14:05:14.660Z,1.10
2018-08-06T14:07:44.876Z,1.20
2018-08-06T14:10:14.250Z,1.10
2018-08-06T14:12:43.335Z,0.93
2018-08-06T14:15:12.836Z,1.47
2018-08-06T14:17:42.576Z,0.90
2018-08-06T14:20:13.200Z,1.03
2018-08-06T14:22:42.327Z,1.20
2018-08-06T14:25:11.980Z,1.00
2018-08-06T14:27:41.088Z,1.05
2018-08-06T14:30:12.522Z,1.13
2018-08-06T14:32:42.051Z,0.90
2018-08-06T14:35:11.301Z,1.10
2018-08-06T14:37:40.416Z,1.10
2018-08-06T14:40:12.891Z,1.00
2018-08-06T14:42:42.012Z,1.00
2018-08-06T14:45:11.496Z,1.00
2018-08-06T14:47:40.588Z,1.27
2018-08-06T14:50:11.316Z,1.47
2018-08-06T14:52:40.483Z,0.93
2018-08-06T14:55:09.555Z,1.10
2018-08-06T14:57:39.748Z,1.00
2018-08-06T15:00:15.679Z,1.00
2018-08-06T15:02:44.884Z,1.90
2018-08-06T15:05:13.972Z,1.10
2018-08-06T15:07:43.085Z,10.65
2018-08-06T15:10:13.188Z,5.80
2018-08-06T15:12:42.276Z,1.20
2018-08-06T15:15:13.683Z,1.17
2018-08-06T15:17:43.247Z,3.93
2018-08-06T15:20:13.964Z,5.53
2018-08-06T15:22:43.108Z,2.00
2018-08-06T15:25:14.132Z,1.00
2018-08-06T15:27:43.616Z,0.80
2018-08-06T15:30:12.713Z,1.10
2018-08-06T15:32:41.812Z,1.20
2018-08-06T15:35:11.603Z,1.00
2018-08-06T15:37:41.461Z,1.15
2018-08-06T15:40:15.013Z,1.00
2018-08-06T15:42:44.125Z,1.10
2018-08-06T15:45:13.720Z,1.17
2018-08-06T15:47:43.539Z,1.50
2018-08-06T15:50:14.418Z,1.03
2018-08-06T15:52:43.528Z,1.00
2018-08-06T15:55:12.615Z,1.20
2018-08-06T15:57:41.964Z,0.97
2018-08-06T16:00:14.411Z,1.20
2018-08-06T16:02:43.850Z,1.47
2018-08-06T16:05:13.258Z,0.80
2018-08-06T16:07:42.364Z,1.10
2018-08-06T16:10:12.248Z,0.98
2018-08-06T16:12:41.733Z,1.15
2018-08-06T16:15:12.376Z,1.20
2018-08-06T16:17:42.307Z,1.00
2018-08-06T16:20:13.792Z,1.40
2018-08-06T16:22:42.912Z,0.90
2018-08-06T16:25:12.686Z,1.07
2018-08-06T16:27:41.777Z,1.57
2018-08-06T16:30:19.851Z,1.50
2018-08-06T16:32:49.325Z,0.88
2018-08-06T16:35:19.978Z,0.80
2018-08-06T16:37:49.813Z,0.83
2018-08-06T16:40:18.928Z,1.33
2018-08-06T16:42:48.817Z,1.10
2018-08-06T16:45:17.964Z,1.60
2018-08-06T16:47:47.080Z,1.30
2018-08-06T16:50:17.308Z,1.20
2018-08-06T16:52:46.579Z,1.37
2018-08-06T16:55:15.572Z,1.00
2018-08-06T16:57:44.695Z,1.00
2018-08-06T17:00:17.759Z,1.00
2018-08-06T17:02:47.183Z,0.93
2018-08-06T17:05:16.318Z,1.07
2018-08-06T17:07:46.473Z,1.10
2018-08-06T17:10:17.975Z,1.30
2018-08-06T17:12:48.475Z,0.80
2018-08-06T17:15:18.800Z,1.50
2018-08-06T17:17:48.835Z,1.10
2018-08-06T17:20:19.652Z,1.30
2018-08-06T17:22:49.744Z,1.20
2018-08-06T17:25:19.120Z,1.30
2018-08-06T17:27:48.236Z,1.40
2018-08-06T17:30:18.067Z,1.27
2018-08-06T17:32:47.343Z,0.97
2018-08-06T17:35:16.739Z,1.12
2018-08-06T17:37:45.838Z,1.10
2018-08-06T17:40:16.809Z,1.00
2018-08-06T17:42:45.966Z,1.10
2018-08-06T17:45:18.995Z,0.90
2018-08-06T17:47:49.405Z,1.10
2018-08-06T17:50:22.284Z,1.17
2018-08-06T17:52:54.986Z,1.07
2018-08-06T17:55:25.322Z,0.90
2018-08-06T17:57:55.970Z,1.33
2018-08-06T18:00:26.850Z,1.00
2018-08-06T18:02:57.680Z,1.33
2018-08-06T18:05:28.146Z,0.80
2018-08-06T18:07:59.509Z,1.10
2018-08-06T18:10:29.897Z,1.60
2018-08-06T18:13:00.386Z,1.00
2018-08-06T18:15:30.821Z,1.20
2018-08-06T18:18:02.621Z,1.30
2018-08-06T18:20:34.048Z,1.17
2018-08-06T18:23:04.495Z,1.32
2018-08-06T18:25:36.607Z,1.37
2018-08-06T18:28:07.893Z,1.23
2018-08-06T18:30:39.022Z,1.93
2018-08-06T18:33:10.526Z,3.65
2018-08-06T18:35:40.923Z,5.37
2018-08-06T18:38:11.960Z,9.65
2018-08-06T18:40:42.452Z,11.73
2018-08-06T18:43:13.784Z,7.80
2018-08-06T18:45:45.089Z,3.27
2018-08-06T18:48:16.442Z,1.75
2018-08-06T18:50:47.012Z,1.60
2018-08-06T18:53:19.863Z,1.10
2018-08-06T18:55:50.795Z,1.55
2018-08-06T18:58:21.239Z,1.45
2018-08-06T19:00:54.967Z,1.10
2018-08-06T19:03:26.060Z,1.37
2018-08-06T19:05:56.493Z,1.17
2018-08-06T19:08:27.575Z,1.50
2018-08-06T19:10:57.940Z,1.20
2018-08-06T19:13:33.247Z,1.40
2018-08-06T19:16:03.626Z,1.10
2018-08-06T19:18:38.210Z,1.47
2018-08-06T19:21:07.634Z,2.10
2018-08-06T19:23:36.695Z,1.67
2018-08-06T19:26:05.800Z,1.90
2018-08-06T19:28:34.875Z,1.70
2018-08-06T19:31:09.559Z,1.87
2018-08-06T19:33:38.624Z,1.80
2018-08-06T19:36:07.724Z,2.00
2018-08-06T19:38:36.820Z,1.73
2018-08-06T19:41:05.991Z,1.60
2018-08-06T19:43:39.035Z,1.60
2018-08-06T19:46:08.773Z,1.87
2018-08-06T19:48:38.048Z,2.43
2018-08-06T19:51:08.161Z,1.65
2018-08-06T19:53:37.232Z,1.50
2018-08-06T19:56:12.155Z,1.93
2018-08-06T19:58:41.216Z,1.33
2018-08-06T20:01:10.316Z,1.63
2018-08-06T20:03:39.391Z,1.30
2018-08-06T20:06:08.797Z,1.10
2018-08-06T20:08:37.911Z,1.60
2018-08-06T20:11:07.289Z,1.20
2018-08-06T20:13:36.360Z,1.30
2018-08-06T20:16:05.448Z,1.25
2018-08-06T20:18:34.548Z,1.63
2018-08-06T20:21:03.711Z,1.60
2018-08-06T20:23:32.800Z,2.07
2018-08-06T20:26:01.888Z,1.60
2018-08-06T20:28:30.956Z,1.37
2018-08-06T20:31:00.129Z,1.60
2018-08-06T20:33:29.227Z,1.47
2018-08-06T20:35:58.316Z,1.60
2018-08-06T20:38:27.395Z,1.20
2018-08-06T20:40:56.484Z,1.90
2018-08-06T20:43:25.595Z,1.80
2018-08-06T20:45:54.685Z,1.43
2018-08-06T20:48:23.772Z,1.42
2018-08-06T20:50:52.839Z,1.50
2018-08-06T20:53:21.922Z,2.00
2018-08-06T20:55:50.983Z,1.50
2018-08-06T20:58:20.179Z,1.15
2018-08-06T21:00:49.256Z,1.53
2018-08-06T21:03:19.351Z,1.50
2018-08-06T21:05:48.423Z,1.27
2018-08-06T21:08:17.532Z,2.20
2018-08-06T21:10:46.644Z,1.40
2018-08-06T21:13:15.724Z,1.70
2018-08-06T21:15:44.856Z,1.50
2018-08-06T21:18:13.936Z,1.97
2018-08-06T21:20:43.010Z,1.75
2018-08-06T21:23:12.130Z,1.40
2018-08-06T21:25:41.187Z,1.50
2018-08-06T21:28:10.264Z,1.80
2018-08-06T21:30:39.969Z,1.53
2018-08-06T21:33:09.084Z,1.57
2018-08-06T21:35:38.180Z,1.97
2018-08-06T21:38:07.355Z,2.20
2018-08-06T21:40:36.501Z,1.90
2018-08-06T21:43:05.577Z,1.40
2018-08-06T21:45:34.677Z,1.40
2018-08-06T21:48:03.800Z,1.57
2018-08-06T21:50:32.918Z,1.40
2018-08-06T21:53:01.946Z,1.47
2018-08-06T21:55:31.015Z,1.83
2018-08-06T21:58:00.109Z,1.70
2018-08-06T22:00:34.552Z,2.13
2018-08-06T22:03:04.910Z,1.80
2018-08-06T22:05:34.039Z,2.00
2018-08-06T22:08:03.603Z,2.10
2018-08-06T22:10:32.856Z,1.90
2018-08-06T22:13:01.957Z,1.83
2018-08-06T22:15:31.020Z,1.60
2018-08-06T22:18:00.112Z,1.67
2018-08-06T22:20:29.176Z,1.50
2018-08-06T22:22:58.303Z,1.83
2018-08-06T22:25:27.376Z,1.87
2018-08-06T22:27:56.464Z,2.10
2018-08-06T22:30:25.531Z,1.57
2018-08-06T22:32:54.625Z,2.00
2018-08-06T22:35:23.693Z,2.40
2018-08-06T22:37:52.791Z,1.30
2018-08-06T22:40:21.860Z,1.60
2018-08-06T22:42:50.948Z,1.80
2018-08-06T22:45:20.048Z,1.50
2018-08-06T22:47:49.184Z,2.00
2018-08-06T22:50:18.248Z,1.70
2018-08-06T22:52:47.331Z,1.67
2018-08-06T22:55:16.407Z,1.90
2018-08-06T22:57:45.487Z,1.77
2018-08-06T23:00:15.914Z,1.80
2018-08-06T23:02:45.444Z,1.70
2018-08-06T23:05:16.055Z,2.27
2018-08-06T23:07:45.235Z,1.60
2018-08-06T23:10:15.952Z,1.47
2018-08-06T23:12:45.076Z,1.70
2018-08-06T23:15:15.392Z,1.97
2018-08-06T23:17:44.922Z,1.70
2018-08-06T23:20:13.967Z,1.87
2018-08-06T23:22:43.063Z,2.00
2018-08-06T23:25:12.164Z,1.60
2018-08-06T23:27:41.223Z,2.07
2018-08-06T23:30:13.027Z,1.57
2018-08-06T23:32:42.408Z,1.57
2018-08-06T23:35:12.685Z,1.47
2018-08-06T23:37:42.748Z,2.40
2018-08-06T23:40:12.576Z,1.50
2018-08-06T23:42:42.168Z,1.50
2018-08-06T23:45:13.072Z,1.50
2018-08-06T23:47:42.146Z,1.77
2018-08-06T23:50:12.876Z,1.63
2018-08-06T23:52:43.864Z,1.67
2018-08-06T23:55:15.383Z,1.40
2018-08-06T23:57:44.444Z,2.63
